RYR397 EIDW-LEBL
Flight info
| Callsign | RYR397 |
|---|---|
| Flight time | N/A |
| Altitude | 37000 |
| Route | PESIT4E PESIT DCT BAKUR DCT GUBJE DCT GISOK DCT TACQI DCT MANIG DCT KORER UM616 TUPAR DCT CNA DCT SECHE DCT AGN DCT TOU DCT LOMRA DCT ROCAN DCT PUMAL PUMAL1Y |
| Aircraft | B38M/M-VGDW/C |
Departure
| Time | 2026-05-07 15:35 |
|---|---|
| Airport | Dublin Airport (EIDW) |
Arrival
| Time | N/A |
|---|---|
| Airport | Josep Tarradellas Barcelona-El Prat Airport (LEBL) |
| Time | Latitude | Longitude | Altitude | Speed | Heading |
|---|---|---|---|---|---|
| 2026-05-07 14:50 | 53.43003 | -6.24878 | 216 ft | 0 kts | 5° |
| 2026-05-07 15:21 | 53.42990 | -6.24880 | 216 ft | 4 kts | 5° |
| 2026-05-07 15:21 | 53.42967 | -6.24884 | 213 ft | 2 kts | 5° |
| 2026-05-07 15:21 | 53.42949 | -6.24877 | 213 ft | 4 kts | 300° |
| 2026-05-07 15:21 | 53.42943 | -6.24838 | 214 ft | 4 kts | 275° |
| 2026-05-07 15:22 | 53.42941 | -6.24793 | 217 ft | 4 kts | 275° |
| 2026-05-07 15:22 | 53.42939 | -6.24749 | 213 ft | 2 kts | 275° |
| 2026-05-07 15:22 | 53.42938 | -6.24746 | 213 ft | 2 kts | 275° |
| 2026-05-07 15:27 | 53.42938 | -6.24749 | 213 ft | 1 kts | 275° |
| 2026-05-07 15:27 | 53.42939 | -6.24757 | 213 ft | 2 kts | 275° |
| 2026-05-07 15:28 | 53.42941 | -6.24791 | 213 ft | 4 kts | 272° |
| 2026-05-07 15:28 | 53.42927 | -6.24847 | 213 ft | 6 kts | 234° |
| 2026-05-07 15:28 | 53.42897 | -6.24905 | 213 ft | 7 kts | 229° |
| 2026-05-07 15:28 | 53.42861 | -6.24973 | 216 ft | 9 kts | 226° |
| 2026-05-07 15:29 | 53.42811 | -6.25047 | 218 ft | 10 kts | 210° |
| 2026-05-07 15:29 | 53.42753 | -6.25130 | 213 ft | 12 kts | 225° |
| 2026-05-07 15:29 | 53.42692 | -6.25234 | 218 ft | 13 kts | 225° |
| 2026-05-07 15:29 | 53.42622 | -6.25353 | 213 ft | 16 kts | 225° |
| 2026-05-07 15:30 | 53.42541 | -6.25492 | 213 ft | 17 kts | 226° |
| 2026-05-07 15:30 | 53.42455 | -6.25639 | 218 ft | 18 kts | 225° |
| 2026-05-07 15:30 | 53.42362 | -6.25796 | 213 ft | 20 kts | 227° |
| 2026-05-07 15:30 | 53.42273 | -6.25976 | 216 ft | 21 kts | 244° |
| 2026-05-07 15:31 | 53.42262 | -6.26223 | 213 ft | 22 kts | 275° |
| 2026-05-07 15:31 | 53.42277 | -6.26485 | 217 ft | 23 kts | 275° |
| 2026-05-07 15:31 | 53.42291 | -6.26758 | 213 ft | 24 kts | 276° |
| 2026-05-07 15:31 | 53.42308 | -6.27049 | 221 ft | 26 kts | 275° |
| 2026-05-07 15:32 | 53.42324 | -6.27355 | 217 ft | 27 kts | 274° |
| 2026-05-07 15:32 | 53.42344 | -6.27674 | 213 ft | 28 kts | 274° |
| 2026-05-07 15:32 | 53.42357 | -6.27958 | 217 ft | 22 kts | 274° |
| 2026-05-07 15:32 | 53.42372 | -6.28220 | 213 ft | 23 kts | 275° |
| 2026-05-07 15:33 | 53.42387 | -6.28499 | 213 ft | 25 kts | 275° |
| 2026-05-07 15:33 | 53.42404 | -6.28794 | 213 ft | 26 kts | 275° |
| 2026-05-07 15:33 | 53.42411 | -6.28969 | 220 ft | 12 kts | 262° |
| 2026-05-07 15:33 | 53.42349 | -6.29075 | 218 ft | 14 kts | 199° |
| 2026-05-07 15:34 | 53.42250 | -6.29057 | 212 ft | 13 kts | 154° |
| 2026-05-07 15:34 | 53.42246 | -6.29041 | 218 ft | 2 kts | 104° |
| 2026-05-07 15:34 | 53.42242 | -6.29000 | 213 ft | 5 kts | 97° |
| 2026-05-07 15:34 | 53.42237 | -6.28899 | 220 ft | 15 kts | 95° |
| 2026-05-07 15:35 | 53.42211 | -6.28452 | 221 ft | 74 kts | 95° |
| 2026-05-07 15:35 | 53.42140 | -6.27172 | 214 ft | 144 kts | 96° |
| 2026-05-07 15:35 | 53.42042 | -6.25250 | 422 ft | 184 kts | 98° |
| 2026-05-07 15:35 | 53.41865 | -6.22994 | 1131 ft | 198 kts | 102° |
| 2026-05-07 15:36 | 53.41701 | -6.20685 | 2127 ft | 204 kts | 100° |
| 2026-05-07 15:36 | 53.41577 | -6.18240 | 2954 ft | 219 kts | 98° |
| 2026-05-07 15:36 | 53.41484 | -6.15682 | 3753 ft | 215 kts | 98° |
| 2026-05-07 15:36 | 53.41391 | -6.13083 | 4411 ft | 230 kts | 98° |
| 2026-05-07 15:37 | 53.41279 | -6.10306 | 5078 ft | 247 kts | 97° |
| 2026-05-07 15:37 | 53.41145 | -6.07414 | 6000 ft | 248 kts | 100° |
| 2026-05-07 15:37 | 53.40946 | -6.04595 | 7093 ft | 242 kts | 104° |
| 2026-05-07 15:37 | 53.40467 | -6.01849 | 7623 ft | 257 kts | 120° |
| 2026-05-07 15:38 | 53.39317 | -5.99576 | 8355 ft | 251 kts | 150° |
| 2026-05-07 15:38 | 53.37760 | -5.98442 | 9211 ft | 247 kts | 172° |
| 2026-05-07 15:38 | 53.36066 | -5.98310 | 10158 ft | 243 kts | 189° |
| 2026-05-07 15:38 | 53.34416 | -5.98950 | 10987 ft | 244 kts | 197° |
| 2026-05-07 15:39 | 53.32779 | -5.99787 | 11768 ft | 248 kts | 198° |
| 2026-05-07 15:39 | 53.31069 | -6.00616 | 12282 ft | 264 kts | 197° |
| 2026-05-07 15:39 | 53.29256 | -6.01454 | 12815 ft | 278 kts | 197° |
| 2026-05-07 15:39 | 53.27356 | -6.02428 | 13052 ft | 290 kts | 198° |
| 2026-05-07 15:40 | 53.25404 | -6.03436 | 13379 ft | 298 kts | 198° |
| 2026-05-07 15:40 | 53.24096 | -6.04104 | 13998 ft | 295 kts | 198° |
| 2026-05-07 15:40 | 53.22135 | -6.05099 | 14838 ft | 297 kts | 198° |
| 2026-05-07 15:40 | 53.20135 | -6.06106 | 15509 ft | 302 kts | 197° |
| 2026-05-07 15:41 | 53.17350 | -6.06781 | 16471 ft | 309 kts | 187° |
| 2026-05-07 15:41 | 53.15200 | -6.07138 | 17213 ft | 312 kts | 187° |
| 2026-05-07 15:41 | 53.13762 | -6.07378 | 17682 ft | 315 kts | 188° |
| 2026-05-07 15:41 | 53.11532 | -6.07521 | 18362 ft | 321 kts | 174° |
| 2026-05-07 15:42 | 53.09362 | -6.06712 | 18973 ft | 325 kts | 169° |
| 2026-05-07 15:42 | 53.07147 | -6.05785 | 19519 ft | 330 kts | 168° |
| 2026-05-07 15:42 | 53.04916 | -6.04817 | 20120 ft | 333 kts | 168° |
| 2026-05-07 15:42 | 53.02665 | -6.03819 | 20714 ft | 336 kts | 168° |
| 2026-05-07 15:43 | 53.00398 | -6.02800 | 21308 ft | 339 kts | 167° |
| 2026-05-07 15:43 | 52.98111 | -6.01766 | 21877 ft | 342 kts | 167° |
| 2026-05-07 15:43 | 52.95808 | -6.00721 | 22438 ft | 345 kts | 167° |
| 2026-05-07 15:43 | 52.93474 | -5.99663 | 22987 ft | 348 kts | 167° |
| 2026-05-07 15:44 | 52.91130 | -5.98600 | 23525 ft | 351 kts | 167° |
| 2026-05-07 15:44 | 52.88758 | -5.97525 | 23976 ft | 354 kts | 167° |
| 2026-05-07 15:44 | 52.86410 | -5.96463 | 24437 ft | 355 kts | 167° |
| 2026-05-07 15:44 | 52.84015 | -5.95381 | 24868 ft | 358 kts | 167° |
| 2026-05-07 15:45 | 52.81573 | -5.94279 | 25305 ft | 360 kts | 167° |
| 2026-05-07 15:45 | 52.79182 | -5.93200 | 25745 ft | 362 kts | 167° |
| 2026-05-07 15:45 | 52.76746 | -5.92103 | 26168 ft | 364 kts | 167° |
| 2026-05-07 15:45 | 52.74292 | -5.90999 | 26599 ft | 366 kts | 167° |
| 2026-05-07 15:46 | 52.69402 | -5.88804 | 27641 ft | 363 kts | 167° |
| 2026-05-07 15:46 | 52.66965 | -5.87711 | 28141 ft | 362 kts | 167° |
| 2026-05-07 15:46 | 52.64532 | -5.86622 | 28635 ft | 361 kts | 167° |
| 2026-05-07 15:47 | 52.62114 | -5.85541 | 29111 ft | 360 kts | 167° |
| 2026-05-07 15:47 | 52.59665 | -5.84447 | 29214 ft | 370 kts | 167° |
| 2026-05-07 15:47 | 52.57145 | -5.83323 | 29289 ft | 379 kts | 167° |
| 2026-05-07 15:47 | 52.54601 | -5.82189 | 29691 ft | 379 kts | 167° |
| 2026-05-07 15:48 | 52.52054 | -5.81055 | 30124 ft | 379 kts | 167° |
| 2026-05-07 15:48 | 52.49512 | -5.79925 | 30517 ft | 378 kts | 167° |
| 2026-05-07 15:48 | 52.46981 | -5.78801 | 30906 ft | 377 kts | 167° |
| 2026-05-07 15:48 | 52.44449 | -5.77678 | 31286 ft | 375 kts | 167° |
| 2026-05-07 15:49 | 52.41959 | -5.76575 | 31662 ft | 374 kts | 167° |
| 2026-05-07 15:49 | 52.39459 | -5.75423 | 32016 ft | 374 kts | 166° |
| 2026-05-07 15:49 | 52.36970 | -5.74209 | 32353 ft | 373 kts | 166° |
| 2026-05-07 15:49 | 52.34486 | -5.73005 | 32695 ft | 371 kts | 166° |
| 2026-05-07 15:50 | 52.32005 | -5.71806 | 33027 ft | 371 kts | 166° |
| 2026-05-07 15:50 | 52.29534 | -5.70615 | 33349 ft | 370 kts | 166° |
| 2026-05-07 15:50 | 52.27075 | -5.69430 | 33666 ft | 369 kts | 166° |
| 2026-05-07 15:50 | 52.24619 | -5.68234 | 33957 ft | 368 kts | 163° |
| 2026-05-07 15:51 | 52.22256 | -5.66622 | 34204 ft | 369 kts | 160° |
| 2026-05-07 15:51 | 52.19890 | -5.65000 | 34392 ft | 369 kts | 160° |
| 2026-05-07 15:51 | 52.17506 | -5.63398 | 34568 ft | 370 kts | 160° |
| 2026-05-07 15:51 | 52.15124 | -5.61813 | 34760 ft | 370 kts | 160° |
| 2026-05-07 15:52 | 52.12735 | -5.60230 | 34927 ft | 371 kts | 161° |
| 2026-05-07 15:52 | 52.10347 | -5.58654 | 35091 ft | 371 kts | 161° |
| 2026-05-07 15:52 | 52.07952 | -5.57075 | 35265 ft | 372 kts | 161° |
| 2026-05-07 15:52 | 52.05554 | -5.55496 | 35437 ft | 372 kts | 161° |
| 2026-05-07 15:53 | 52.03199 | -5.53745 | 35592 ft | 374 kts | 156° |
| 2026-05-07 15:53 | 52.00870 | -5.51858 | 35756 ft | 374 kts | 156° |
| 2026-05-07 15:53 | 51.98539 | -5.50004 | 35884 ft | 374 kts | 157° |
| 2026-05-07 15:53 | 51.96231 | -5.48181 | 36045 ft | 374 kts | 157° |
| 2026-05-07 15:54 | 51.93884 | -5.46335 | 36192 ft | 375 kts | 157° |
| 2026-05-07 15:54 | 51.91540 | -5.44495 | 36322 ft | 375 kts | 157° |
| 2026-05-07 15:54 | 51.89187 | -5.42651 | 36456 ft | 375 kts | 157° |
| 2026-05-07 15:54 | 51.86835 | -5.40810 | 36570 ft | 376 kts | 157° |
| 2026-05-07 15:55 | 51.84483 | -5.38971 | 36701 ft | 376 kts | 157° |
| 2026-05-07 15:55 | 51.82126 | -5.37130 | 36826 ft | 376 kts | 157° |
| 2026-05-07 15:55 | 51.79770 | -5.35293 | 36940 ft | 376 kts | 157° |
| 2026-05-07 15:56 | 51.75047 | -5.31615 | 37025 ft | 379 kts | 157° |
| 2026-05-07 15:56 | 51.70256 | -5.27894 | 37010 ft | 385 kts | 157° |
| 2026-05-07 15:57 | 51.65415 | -5.24142 | 37004 ft | 385 kts | 157° |
| 2026-05-07 15:57 | 51.60584 | -5.20407 | 37007 ft | 385 kts | 157° |
| 2026-05-07 15:58 | 51.55758 | -5.16685 | 37010 ft | 385 kts | 157° |
| 2026-05-07 15:58 | 51.50948 | -5.12938 | 37008 ft | 391 kts | 152° |
| 2026-05-07 15:58 | 51.48766 | -5.10275 | 37012 ft | 396 kts | 139° |
| 2026-05-07 15:59 | 51.46710 | -5.07325 | 37005 ft | 399 kts | 142° |
| 2026-05-07 15:59 | 51.42484 | -5.01433 | 37026 ft | 405 kts | 141° |
| 2026-05-07 16:00 | 51.38218 | -4.95426 | 37010 ft | 412 kts | 141° |
| 2026-05-07 16:00 | 51.33883 | -4.89326 | 37009 ft | 419 kts | 141° |
| 2026-05-07 16:01 | 51.29468 | -4.83127 | 37011 ft | 426 kts | 141° |
| 2026-05-07 16:01 | 51.24978 | -4.76841 | 37009 ft | 433 kts | 141° |
| 2026-05-07 16:02 | 51.20441 | -4.70506 | 37005 ft | 440 kts | 141° |
| 2026-05-07 16:02 | 51.15803 | -4.64048 | 37012 ft | 447 kts | 141° |
| 2026-05-07 16:03 | 51.11082 | -4.57491 | 37013 ft | 453 kts | 141° |
| 2026-05-07 16:03 | 51.06323 | -4.50900 | 37008 ft | 453 kts | 141° |
| 2026-05-07 16:04 | 51.01262 | -4.45046 | 37028 ft | 449 kts | 150° |
| 2026-05-07 16:04 | 50.95964 | -4.39733 | 37008 ft | 450 kts | 150° |
| 2026-05-07 16:05 | 50.90663 | -4.34448 | 37002 ft | 450 kts | 150° |
| 2026-05-07 16:05 | 50.85354 | -4.29171 | 37003 ft | 450 kts | 150° |
| 2026-05-07 16:06 | 50.80068 | -4.23929 | 37001 ft | 450 kts | 150° |
| 2026-05-07 16:06 | 50.74761 | -4.18683 | 36996 ft | 450 kts | 150° |
| 2026-05-07 16:07 | 50.69451 | -4.13448 | 37000 ft | 450 kts | 150° |
| 2026-05-07 16:07 | 50.64135 | -4.08221 | 37004 ft | 450 kts | 150° |
| 2026-05-07 16:08 | 50.58815 | -4.03003 | 36998 ft | 450 kts | 150° |
| 2026-05-07 16:08 | 50.53498 | -3.97804 | 37004 ft | 450 kts | 150° |
| 2026-05-07 16:09 | 50.48176 | -3.92612 | 37006 ft | 450 kts | 150° |
| 2026-05-07 16:09 | 50.42846 | -3.87427 | 37008 ft | 450 kts | 150° |
| 2026-05-07 16:10 | 50.37519 | -3.82260 | 37004 ft | 450 kts | 150° |
| 2026-05-07 16:10 | 50.32190 | -3.77104 | 37011 ft | 450 kts | 150° |
| 2026-05-07 16:11 | 50.26862 | -3.71962 | 37007 ft | 450 kts | 150° |
| 2026-05-07 16:11 | 50.21562 | -3.66861 | 37006 ft | 450 kts | 150° |
| 2026-05-07 16:12 | 50.16226 | -3.61740 | 37009 ft | 450 kts | 151° |
| 2026-05-07 16:12 | 50.10895 | -3.56636 | 37005 ft | 450 kts | 151° |
| 2026-05-07 16:13 | 50.05547 | -3.51529 | 37005 ft | 450 kts | 151° |
| 2026-05-07 16:13 | 50.00202 | -3.46439 | 37004 ft | 450 kts | 151° |
| 2026-05-07 16:14 | 49.94855 | -3.41361 | 37007 ft | 450 kts | 151° |
| 2026-05-07 16:14 | 49.89513 | -3.36299 | 37001 ft | 450 kts | 151° |
| 2026-05-07 16:15 | 49.84162 | -3.31241 | 37004 ft | 450 kts | 151° |
| 2026-05-07 16:15 | 49.78804 | -3.26380 | 36987 ft | 447 kts | 160° |
| 2026-05-07 16:16 | 49.72861 | -3.23893 | 36966 ft | 445 kts | 167° |
| 2026-05-07 16:16 | 49.66871 | -3.21563 | 37005 ft | 445 kts | 168° |
| 2026-05-07 16:17 | 49.60854 | -3.19297 | 36996 ft | 445 kts | 168° |
| 2026-05-07 16:17 | 49.54832 | -3.17046 | 37000 ft | 445 kts | 168° |
| 2026-05-07 16:18 | 49.48816 | -3.14802 | 36994 ft | 445 kts | 168° |
| 2026-05-07 16:18 | 49.42806 | -3.12567 | 36993 ft | 445 kts | 168° |
| 2026-05-07 16:19 | 49.36786 | -3.10334 | 36989 ft | 445 kts | 168° |
| 2026-05-07 16:19 | 49.30808 | -3.08121 | 36992 ft | 445 kts | 168° |
| 2026-05-07 16:20 | 49.24788 | -3.05900 | 36982 ft | 445 kts | 168° |
| 2026-05-07 16:20 | 49.18775 | -3.03685 | 36986 ft | 445 kts | 169° |
| 2026-05-07 16:21 | 49.12752 | -3.01473 | 36984 ft | 445 kts | 169° |
| 2026-05-07 16:21 | 49.06721 | -2.99263 | 36985 ft | 445 kts | 169° |
| 2026-05-07 16:22 | 49.00692 | -2.97060 | 36978 ft | 445 kts | 169° |
| 2026-05-07 16:22 | 48.94682 | -2.94869 | 36982 ft | 444 kts | 169° |
| 2026-05-07 16:23 | 48.88664 | -2.92680 | 36982 ft | 444 kts | 169° |
| 2026-05-07 16:23 | 48.82645 | -2.90497 | 36981 ft | 444 kts | 169° |
| 2026-05-07 16:24 | 48.76661 | -2.88332 | 36984 ft | 444 kts | 169° |
| 2026-05-07 16:24 | 48.70643 | -2.86160 | 36997 ft | 444 kts | 169° |
| 2026-05-07 16:25 | 48.64628 | -2.83993 | 36993 ft | 444 kts | 169° |
| 2026-05-07 16:25 | 48.58612 | -2.81833 | 36992 ft | 444 kts | 169° |
| 2026-05-07 16:26 | 48.52592 | -2.79675 | 36968 ft | 444 kts | 169° |
| 2026-05-07 16:26 | 48.46576 | -2.77525 | 36968 ft | 444 kts | 169° |
| 2026-05-07 16:27 | 48.40555 | -2.75378 | 36973 ft | 445 kts | 169° |
| 2026-05-07 16:27 | 48.35550 | -2.73598 | 36979 ft | 444 kts | 169° |
| 2026-05-07 16:28 | 48.29525 | -2.71459 | 36974 ft | 444 kts | 169° |
| 2026-05-07 16:28 | 48.22527 | -2.68981 | 36970 ft | 444 kts | 169° |
| 2026-05-07 16:29 | 48.16512 | -2.66857 | 36968 ft | 444 kts | 169° |
| 2026-05-07 16:29 | 48.11471 | -2.65081 | 36972 ft | 444 kts | 169° |
| 2026-05-07 16:30 | 48.05452 | -2.62964 | 36970 ft | 444 kts | 169° |
| 2026-05-07 16:30 | 47.99434 | -2.60853 | 36977 ft | 444 kts | 169° |
| 2026-05-07 16:31 | 47.93459 | -2.58763 | 36960 ft | 444 kts | 169° |
| 2026-05-07 16:31 | 47.87441 | -2.56662 | 36961 ft | 444 kts | 169° |
| 2026-05-07 16:32 | 47.81423 | -2.54565 | 36967 ft | 444 kts | 169° |
| 2026-05-07 16:32 | 47.75399 | -2.52471 | 36956 ft | 444 kts | 169° |
| 2026-05-07 16:33 | 47.69492 | -2.49842 | 36938 ft | 448 kts | 152° |
| 2026-05-07 16:33 | 47.67018 | -2.47009 | 36969 ft | 453 kts | 137° |
| 2026-05-07 16:33 | 47.64866 | -2.43556 | 36962 ft | 458 kts | 135° |
| 2026-05-07 16:34 | 47.60616 | -2.36506 | 36971 ft | 459 kts | 134° |
| 2026-05-07 16:34 | 47.56421 | -2.29385 | 36959 ft | 459 kts | 134° |
| 2026-05-07 16:35 | 47.52243 | -2.22267 | 36965 ft | 458 kts | 134° |
| 2026-05-07 16:35 | 47.48059 | -2.15155 | 36966 ft | 458 kts | 134° |
| 2026-05-07 16:36 | 47.43868 | -2.08050 | 36967 ft | 458 kts | 134° |
| 2026-05-07 16:36 | 47.39678 | -2.00963 | 36965 ft | 458 kts | 134° |
| 2026-05-07 16:37 | 47.35508 | -1.93928 | 36958 ft | 458 kts | 134° |
| 2026-05-07 16:37 | 47.31313 | -1.86845 | 36963 ft | 458 kts | 134° |
| 2026-05-07 16:38 | 47.27118 | -1.79784 | 36964 ft | 458 kts | 134° |
| 2026-05-07 16:38 | 47.22914 | -1.72724 | 36965 ft | 458 kts | 134° |
| 2026-05-07 16:39 | 47.18713 | -1.65687 | 36966 ft | 458 kts | 134° |
| 2026-05-07 16:39 | 47.14302 | -1.58976 | 36975 ft | 455 kts | 141° |
| 2026-05-07 16:40 | 47.09593 | -1.52749 | 36965 ft | 456 kts | 141° |
| 2026-05-07 16:40 | 47.04868 | -1.46543 | 36971 ft | 456 kts | 141° |
| 2026-05-07 16:41 | 47.00178 | -1.40400 | 36967 ft | 455 kts | 142° |
| 2026-05-07 16:41 | 46.95448 | -1.34210 | 36955 ft | 456 kts | 142° |
| 2026-05-07 16:42 | 46.90699 | -1.28003 | 36971 ft | 457 kts | 142° |
| 2026-05-07 16:42 | 46.85948 | -1.21809 | 36958 ft | 457 kts | 142° |
| 2026-05-07 16:43 | 46.81199 | -1.15634 | 36972 ft | 457 kts | 142° |
| 2026-05-07 16:43 | 46.76472 | -1.09502 | 36955 ft | 457 kts | 142° |
| 2026-05-07 16:44 | 46.71719 | -1.03351 | 36956 ft | 457 kts | 142° |
| 2026-05-07 16:44 | 46.66953 | -0.97199 | 36952 ft | 457 kts | 142° |
| 2026-05-07 16:45 | 46.62198 | -0.91077 | 36955 ft | 457 kts | 142° |
| 2026-05-07 16:45 | 46.57439 | -0.84947 | 36959 ft | 457 kts | 142° |
| 2026-05-07 16:46 | 46.52679 | -0.78813 | 36953 ft | 457 kts | 142° |
| 2026-05-07 16:46 | 46.47921 | -0.72697 | 36961 ft | 457 kts | 142° |
| 2026-05-07 16:47 | 46.43022 | -0.66876 | 36922 ft | 449 kts | 156° |
| 2026-05-07 16:47 | 46.37226 | -0.63768 | 36918 ft | 445 kts | 165° |
| 2026-05-07 16:48 | 46.31393 | -0.60973 | 36967 ft | 445 kts | 166° |
| 2026-05-07 16:48 | 46.25504 | -0.58244 | 36963 ft | 444 kts | 166° |
| 2026-05-07 16:49 | 46.19618 | -0.55539 | 36960 ft | 444 kts | 166° |
| 2026-05-07 16:49 | 46.13719 | -0.52835 | 36954 ft | 444 kts | 166° |
| 2026-05-07 16:50 | 46.07833 | -0.50143 | 36958 ft | 444 kts | 166° |
| 2026-05-07 16:50 | 46.01940 | -0.47454 | 36966 ft | 444 kts | 166° |
| 2026-05-07 16:51 | 45.96057 | -0.44775 | 36949 ft | 444 kts | 166° |
| 2026-05-07 16:51 | 45.90171 | -0.42102 | 36954 ft | 443 kts | 166° |
| 2026-05-07 16:52 | 45.84285 | -0.39434 | 36951 ft | 443 kts | 166° |
| 2026-05-07 16:52 | 45.78397 | -0.36771 | 36954 ft | 443 kts | 166° |
| 2026-05-07 16:53 | 45.72515 | -0.34117 | 36956 ft | 443 kts | 166° |
| 2026-05-07 16:53 | 45.66628 | -0.31455 | 36942 ft | 444 kts | 164° |
| 2026-05-07 16:54 | 45.61032 | -0.27741 | 36927 ft | 448 kts | 158° |
| 2026-05-07 16:54 | 45.55418 | -0.23869 | 36943 ft | 448 kts | 158° |
| 2026-05-07 16:55 | 45.49813 | -0.20002 | 36940 ft | 448 kts | 158° |
| 2026-05-07 16:55 | 45.44199 | -0.16138 | 36943 ft | 448 kts | 158° |
| 2026-05-07 16:56 | 45.38584 | -0.12281 | 36945 ft | 448 kts | 158° |
| 2026-05-07 16:56 | 45.30168 | -0.06515 | 36938 ft | 448 kts | 158° |
| 2026-05-07 16:57 | 45.24550 | -0.02677 | 36933 ft | 448 kts | 158° |
| 2026-05-07 16:57 | 45.18976 | 0.01121 | 36917 ft | 447 kts | 158° |
| 2026-05-07 16:58 | 45.13331 | 0.04961 | 36935 ft | 447 kts | 158° |
| 2026-05-07 16:58 | 45.07762 | 0.08740 | 36934 ft | 447 kts | 158° |
| 2026-05-07 16:59 | 45.02144 | 0.12545 | 36932 ft | 447 kts | 158° |
| 2026-05-07 16:59 | 44.96533 | 0.16336 | 36927 ft | 447 kts | 158° |
| 2026-05-07 17:00 | 44.90923 | 0.20117 | 36936 ft | 447 kts | 158° |
| 2026-05-07 17:00 | 44.85314 | 0.23892 | 36933 ft | 447 kts | 158° |
| 2026-05-07 17:01 | 44.79699 | 0.27661 | 36936 ft | 447 kts | 158° |
| 2026-05-07 17:01 | 44.74084 | 0.31422 | 36929 ft | 447 kts | 158° |
| 2026-05-07 17:02 | 44.68472 | 0.35174 | 36933 ft | 447 kts | 158° |
| 2026-05-07 17:02 | 44.62859 | 0.38916 | 36919 ft | 447 kts | 159° |
| 2026-05-07 17:03 | 44.57235 | 0.42660 | 36924 ft | 447 kts | 159° |
| 2026-05-07 17:03 | 44.51643 | 0.46374 | 36924 ft | 447 kts | 159° |
| 2026-05-07 17:04 | 44.46019 | 0.50103 | 36920 ft | 447 kts | 159° |
| 2026-05-07 17:04 | 44.40385 | 0.53800 | 36912 ft | 447 kts | 159° |
| 2026-05-07 17:05 | 44.34759 | 0.57484 | 36924 ft | 447 kts | 159° |
| 2026-05-07 17:05 | 44.29120 | 0.61169 | 36937 ft | 447 kts | 159° |
| 2026-05-07 17:06 | 44.23487 | 0.64841 | 36942 ft | 447 kts | 159° |
| 2026-05-07 17:06 | 44.17853 | 0.68507 | 36930 ft | 447 kts | 159° |
| 2026-05-07 17:07 | 44.12213 | 0.72169 | 36938 ft | 447 kts | 159° |
| 2026-05-07 17:07 | 44.06601 | 0.75805 | 36947 ft | 447 kts | 159° |
| 2026-05-07 17:08 | 44.00962 | 0.79451 | 36915 ft | 447 kts | 159° |
| 2026-05-07 17:08 | 43.95316 | 0.83094 | 36930 ft | 447 kts | 159° |
| 2026-05-07 17:09 | 43.89788 | 0.87067 | 36902 ft | 453 kts | 144° |
| 2026-05-07 17:09 | 43.87613 | 0.90251 | 36929 ft | 460 kts | 129° |
| 2026-05-07 17:09 | 43.85791 | 0.93929 | 36903 ft | 465 kts | 128° |
| 2026-05-07 17:10 | 43.82182 | 1.01359 | 36925 ft | 466 kts | 127° |
| 2026-05-07 17:10 | 43.78619 | 1.08848 | 36929 ft | 466 kts | 127° |
| 2026-05-07 17:11 | 43.75060 | 1.16340 | 36919 ft | 466 kts | 127° |
| 2026-05-07 17:11 | 43.71497 | 1.23828 | 36937 ft | 466 kts | 128° |
| 2026-05-07 17:12 | 43.67886 | 1.31255 | 36923 ft | 463 kts | 133° |
| 2026-05-07 17:12 | 43.63882 | 1.38190 | 36934 ft | 463 kts | 133° |
| 2026-05-07 17:13 | 43.59851 | 1.45103 | 36942 ft | 463 kts | 133° |
| 2026-05-07 17:13 | 43.55826 | 1.51983 | 36931 ft | 463 kts | 133° |
| 2026-05-07 17:14 | 43.51778 | 1.58885 | 36924 ft | 463 kts | 134° |
| 2026-05-07 17:14 | 43.47726 | 1.65778 | 36578 ft | 462 kts | 134° |
| 2026-05-07 17:15 | 43.45710 | 1.69202 | 36080 ft | 460 kts | 134° |
| 2026-05-07 17:15 | 43.44350 | 1.71509 | 35738 ft | 459 kts | 134° |
| 2026-05-07 17:15 | 43.41687 | 1.76021 | 35091 ft | 457 kts | 134° |
| 2026-05-07 17:15 | 43.40338 | 1.78306 | 34775 ft | 456 kts | 134° |
| 2026-05-07 17:16 | 43.38338 | 1.81689 | 34287 ft | 455 kts | 134° |
| 2026-05-07 17:16 | 43.36231 | 1.84884 | 33782 ft | 445 kts | 146° |
| 2026-05-07 17:16 | 43.33634 | 1.87047 | 33209 ft | 432 kts | 164° |
| 2026-05-07 17:16 | 43.30761 | 1.88036 | 32696 ft | 426 kts | 175° |
| 2026-05-07 17:17 | 43.27816 | 1.88617 | 32225 ft | 428 kts | 177° |
| 2026-05-07 17:17 | 43.24860 | 1.89067 | 31740 ft | 429 kts | 178° |
| 2026-05-07 17:17 | 43.21884 | 1.89432 | 31267 ft | 430 kts | 179° |
| 2026-05-07 17:17 | 43.18903 | 1.89760 | 30799 ft | 429 kts | 180° |
| 2026-05-07 17:18 | 43.15928 | 1.90063 | 30328 ft | 429 kts | 180° |
| 2026-05-07 17:18 | 43.12981 | 1.90351 | 29862 ft | 430 kts | 180° |
| 2026-05-07 17:18 | 43.09988 | 1.90638 | 29320 ft | 433 kts | 180° |
| 2026-05-07 17:18 | 43.06973 | 1.90925 | 28781 ft | 435 kts | 180° |
| 2026-05-07 17:19 | 43.03946 | 1.91213 | 28249 ft | 438 kts | 180° |
| 2026-05-07 17:19 | 43.00892 | 1.91502 | 27726 ft | 441 kts | 180° |
| 2026-05-07 17:19 | 42.97821 | 1.91793 | 27411 ft | 443 kts | 180° |
| 2026-05-07 17:19 | 42.94737 | 1.92086 | 27028 ft | 445 kts | 179° |
| 2026-05-07 17:20 | 42.91648 | 1.92378 | 26631 ft | 447 kts | 179° |
| 2026-05-07 17:20 | 42.88544 | 1.92671 | 26238 ft | 448 kts | 179° |
| 2026-05-07 17:20 | 42.85426 | 1.92965 | 25855 ft | 450 kts | 179° |
| 2026-05-07 17:20 | 42.82291 | 1.93261 | 25483 ft | 451 kts | 178° |
| 2026-05-07 17:21 | 42.79173 | 1.93555 | 25101 ft | 450 kts | 178° |
| 2026-05-07 17:21 | 42.76047 | 1.93849 | 24741 ft | 449 kts | 178° |
| 2026-05-07 17:21 | 42.72975 | 1.94138 | 24382 ft | 448 kts | 178° |
| 2026-05-07 17:21 | 42.69871 | 1.94430 | 24025 ft | 446 kts | 178° |
| 2026-05-07 17:22 | 42.66782 | 1.94823 | 23673 ft | 446 kts | 173° |
| 2026-05-07 17:22 | 42.63720 | 1.95486 | 23265 ft | 445 kts | 173° |
| 2026-05-07 17:22 | 42.60667 | 1.96119 | 22845 ft | 443 kts | 173° |
| 2026-05-07 17:22 | 42.57628 | 1.96729 | 22411 ft | 440 kts | 173° |
| 2026-05-07 17:23 | 42.54613 | 1.97325 | 22011 ft | 438 kts | 173° |
| 2026-05-07 17:23 | 42.51603 | 1.97917 | 21605 ft | 436 kts | 173° |
| 2026-05-07 17:23 | 42.48608 | 1.98505 | 21199 ft | 434 kts | 173° |
| 2026-05-07 17:23 | 42.45628 | 1.99090 | 20806 ft | 431 kts | 173° |
| 2026-05-07 17:24 | 42.42666 | 1.99670 | 20382 ft | 429 kts | 173° |
| 2026-05-07 17:24 | 42.39719 | 2.00247 | 19970 ft | 427 kts | 173° |
| 2026-05-07 17:24 | 42.36786 | 2.00799 | 19555 ft | 425 kts | 176° |
| 2026-05-07 17:24 | 42.33844 | 2.01142 | 19154 ft | 423 kts | 176° |
| 2026-05-07 17:25 | 42.30918 | 2.01493 | 18752 ft | 422 kts | 176° |
| 2026-05-07 17:25 | 42.28005 | 2.01853 | 18366 ft | 420 kts | 176° |
| 2026-05-07 17:25 | 42.25097 | 2.02217 | 17929 ft | 419 kts | 176° |
| 2026-05-07 17:25 | 42.22202 | 2.02579 | 17482 ft | 415 kts | 176° |
| 2026-05-07 17:26 | 42.19355 | 2.02936 | 17047 ft | 407 kts | 176° |
| 2026-05-07 17:26 | 42.16564 | 2.03279 | 16608 ft | 400 kts | 176° |
| 2026-05-07 17:26 | 42.13822 | 2.03607 | 16188 ft | 393 kts | 176° |
| 2026-05-07 17:26 | 42.11110 | 2.03934 | 15764 ft | 387 kts | 176° |
| 2026-05-07 17:27 | 42.08433 | 2.04255 | 15339 ft | 387 kts | 176° |
| 2026-05-07 17:27 | 42.05758 | 2.04576 | 14918 ft | 386 kts | 176° |
| 2026-05-07 17:27 | 42.03091 | 2.04896 | 14512 ft | 384 kts | 175° |
| 2026-05-07 17:27 | 42.00436 | 2.05214 | 14108 ft | 381 kts | 175° |
| 2026-05-07 17:28 | 41.97810 | 2.05529 | 13698 ft | 377 kts | 176° |
| 2026-05-07 17:28 | 41.95210 | 2.05839 | 13242 ft | 373 kts | 176° |
| 2026-05-07 17:28 | 41.92641 | 2.06146 | 12796 ft | 369 kts | 175° |
| 2026-05-07 17:28 | 41.90102 | 2.06446 | 12357 ft | 366 kts | 175° |
| 2026-05-07 17:29 | 41.87613 | 2.06742 | 11925 ft | 363 kts | 175° |
| 2026-05-07 17:29 | 41.85113 | 2.07038 | 11494 ft | 359 kts | 175° |
| 2026-05-07 17:29 | 41.82631 | 2.07334 | 11071 ft | 356 kts | 175° |
| 2026-05-07 17:29 | 41.80175 | 2.07628 | 10657 ft | 354 kts | 175° |
| 2026-05-07 17:30 | 41.77747 | 2.07918 | 10235 ft | 351 kts | 175° |
| 2026-05-07 17:30 | 41.75318 | 2.08208 | 9828 ft | 348 kts | 175° |
| 2026-05-07 17:30 | 41.72912 | 2.08495 | 9381 ft | 346 kts | 174° |
| 2026-05-07 17:30 | 41.70544 | 2.08777 | 9099 ft | 339 kts | 174° |
| 2026-05-07 17:31 | 41.68227 | 2.09052 | 8840 ft | 331 kts | 174° |
| 2026-05-07 17:31 | 41.65952 | 2.09322 | 8576 ft | 324 kts | 174° |
| 2026-05-07 17:31 | 41.63729 | 2.09586 | 8326 ft | 318 kts | 174° |
| 2026-05-07 17:31 | 41.61554 | 2.09843 | 8070 ft | 312 kts | 174° |
| 2026-05-07 17:32 | 41.59408 | 2.10098 | 7821 ft | 306 kts | 174° |
| 2026-05-07 17:32 | 41.57330 | 2.10343 | 7719 ft | 295 kts | 174° |
| 2026-05-07 17:32 | 41.55655 | 2.10541 | 7659 ft | 286 kts | 174° |
| 2026-05-07 17:32 | 41.53867 | 2.10751 | 7590 ft | 282 kts | 173° |
| 2026-05-07 17:33 | 41.51923 | 2.10556 | 7326 ft | 283 kts | 197° |
| 2026-05-07 17:33 | 41.50206 | 2.09294 | 7027 ft | 282 kts | 214° |
| 2026-05-07 17:33 | 41.48573 | 2.07777 | 6739 ft | 283 kts | 213° |
| 2026-05-07 17:33 | 41.46975 | 2.06304 | 6446 ft | 283 kts | 213° |
| 2026-05-07 17:34 | 41.45358 | 2.04810 | 6130 ft | 283 kts | 213° |
| 2026-05-07 17:34 | 41.43755 | 2.03322 | 5827 ft | 281 kts | 213° |
| 2026-05-07 17:34 | 41.42154 | 2.01837 | 5525 ft | 280 kts | 213° |
| 2026-05-07 17:34 | 41.40561 | 2.00359 | 5219 ft | 278 kts | 212° |
| 2026-05-07 17:35 | 41.38973 | 1.98887 | 4930 ft | 277 kts | 212° |
| 2026-05-07 17:35 | 41.37391 | 1.97422 | 4626 ft | 277 kts | 212° |
| 2026-05-07 17:35 | 41.35809 | 1.95959 | 4302 ft | 276 kts | 212° |
| 2026-05-07 17:35 | 41.34235 | 1.94504 | 4036 ft | 274 kts | 213° |
| 2026-05-07 17:36 | 41.32684 | 1.93068 | 3847 ft | 269 kts | 213° |
| 2026-05-07 17:36 | 41.31164 | 1.91663 | 3657 ft | 263 kts | 213° |
| 2026-05-07 17:36 | 41.29674 | 1.90288 | 3491 ft | 258 kts | 212° |
| 2026-05-07 17:36 | 41.28212 | 1.88939 | 3309 ft | 253 kts | 213° |
| 2026-05-07 17:37 | 41.26781 | 1.87618 | 3153 ft | 246 kts | 212° |
| 2026-05-07 17:37 | 41.25389 | 1.86457 | 3038 ft | 229 kts | 200° |
| 2026-05-07 17:37 | 41.23913 | 1.86192 | 2967 ft | 206 kts | 169° |
| 2026-05-07 17:37 | 41.22705 | 1.86944 | 2970 ft | 185 kts | 134° |